sensor_id;sensor_type;location;lat;lon;timestamp;temperature;humidity
15003;DHT22;7597;53.590;10.020;2022-12-16T00:01:03;-1.20;1.00
15003;DHT22;7597;53.590;10.020;2022-12-16T00:03:29;-1.20;1.00
15003;DHT22;7597;53.590;10.020;2022-12-16T00:05:56;-1.20;1.00
15003;DHT22;7597;53.590;10.020;2022-12-16T00:08:22;-1.20;1.00
15003;DHT22;7597;53.590;10.020;2022-12-16T00:10:49;-1.20;1.00
15003;DHT22;7597;53.590;10.020;2022-12-16T00:13:19;-1.10;1.00
15003;DHT22;7597;53.590;10.020;2022-12-16T00:15:46;-1.10;1.00
15003;DHT22;7597;53.590;10.020;2022-12-16T00:18:12;-1.20;1.00
15003;DHT22;7597;53.590;10.020;2022-12-16T00:20:44;-1.20;1.00
15003;DHT22;7597;53.590;10.020;2022-12-16T00:23:10;-1.20;1.00
15003;DHT22;7597;53.590;10.020;2022-12-16T00:25:37;-1.10;1.00
15003;DHT22;7597;53.590;10.020;2022-12-16T00:28:04;-1.20;1.00
15003;DHT22;7597;53.590;10.020;2022-12-16T00:30:30;-1.20;1.00
15003;DHT22;7597;53.590;10.020;2022-12-16T00:32:57;-1.20;1.00
15003;DHT22;7597;53.590;10.020;2022-12-16T00:35:24;-1.20;1.00
15003;DHT22;7597;53.590;10.020;2022-12-16T00:37:50;-1.30;1.00
15003;DHT22;7597;53.590;10.020;2022-12-16T00:40:17;-1.30;1.00
15003;DHT22;7597;53.590;10.020;2022-12-16T00:42:43;-1.20;1.00
15003;DHT22;7597;53.590;10.020;2022-12-16T00:45:11;-1.20;1.00
15003;DHT22;7597;53.590;10.020;2022-12-16T00:47:37;-1.20;1.00
15003;DHT22;7597;53.590;10.020;2022-12-16T00:50:05;-1.20;1.00
15003;DHT22;7597;53.590;10.020;2022-12-16T00:52:32;-1.20;1.00
15003;DHT22;7597;53.590;10.020;2022-12-16T00:54:58;-1.20;1.00
15003;DHT22;7597;53.590;10.020;2022-12-16T00:57:25;-1.20;1.00
15003;DHT22;7597;53.590;10.020;2022-12-16T00:59:52;-1.20;1.00
15003;DHT22;7597;53.590;10.020;2022-12-16T01:02:18;-0.80;1.00
15003;DHT22;7597;53.590;10.020;2022-12-16T01:04:45;-1.20;1.00
15003;DHT22;7597;53.590;10.020;2022-12-16T01:07:12;-1.20;1.00
15003;DHT22;7597;53.590;10.020;2022-12-16T01:09:38;-1.20;1.00
15003;DHT22;7597;53.590;10.020;2022-12-16T01:12:05;-1.10;1.00
15003;DHT22;7597;53.590;10.020;2022-12-16T01:14:32;-1.20;1.00
15003;DHT22;7597;53.590;10.020;2022-12-16T01:16:58;-0.90;1.00
15003;DHT22;7597;53.590;10.020;2022-12-16T01:19:25;-1.10;1.00
15003;DHT22;7597;53.590;10.020;2022-12-16T01:21:52;-1.10;1.00
15003;DHT22;7597;53.590;10.020;2022-12-16T01:24:18;-1.20;1.00
15003;DHT22;7597;53.590;10.020;2022-12-16T01:26:45;-1.00;1.00
15003;DHT22;7597;53.590;10.020;2022-12-16T01:29:12;-1.20;1.00
15003;DHT22;7597;53.590;10.020;2022-12-16T01:31:38;-0.80;1.00
15003;DHT22;7597;53.590;10.020;2022-12-16T01:34:05;-1.10;1.00
15003;DHT22;7597;53.590;10.020;2022-12-16T01:36:32;-1.10;1.00
15003;DHT22;7597;53.590;10.020;2022-12-16T01:38:58;-1.20;1.00
15003;DHT22;7597;53.590;10.020;2022-12-16T01:41:25;-1.20;1.00
15003;DHT22;7597;53.590;10.020;2022-12-16T01:43:51;-1.20;1.00
15003;DHT22;7597;53.590;10.020;2022-12-16T01:46:20;-1.20;1.00
15003;DHT22;7597;53.590;10.020;2022-12-16T01:48:47;-1.20;1.00
15003;DHT22;7597;53.590;10.020;2022-12-16T01:54:03;-1.20;1.00
15003;DHT22;7597;53.590;10.020;2022-12-16T01:56:27;-0.70;1.00
15003;DHT22;7597;53.590;10.020;2022-12-16T01:58:54;-1.20;1.00
15003;DHT22;7597;53.590;10.020;2022-12-16T02:01:20;-1.20;1.00
15003;DHT22;7597;53.590;10.020;2022-12-16T02:03:47;-1.20;1.00
15003;DHT22;7597;53.590;10.020;2022-12-16T02:06:14;-1.20;1.00
15003;DHT22;7597;53.590;10.020;2022-12-16T02:08:40;-1.30;1.00
15003;DHT22;7597;53.590;10.020;2022-12-16T02:11:11;-1.30;1.00
15003;DHT22;7597;53.590;10.020;2022-12-16T02:16:41;-1.40;1.00
15003;DHT22;7597;53.590;10.020;2022-12-16T02:27:41;-1.60;1.00
15003;DHT22;7597;53.590;10.020;2022-12-16T02:30:18;-1.70;1.00
15003;DHT22;7597;53.590;10.020;2022-12-16T02:32:38;-1.70;1.00
15003;DHT22;7597;53.590;10.020;2022-12-16T02:38:04;-1.80;1.00
15003;DHT22;7597;53.590;10.020;2022-12-16T02:45:50;-2.10;1.00
15003;DHT22;7597;53.590;10.020;2022-12-16T02:48:17;-2.20;1.00
15003;DHT22;7597;53.590;10.020;2022-12-16T02:50:46;-2.30;1.00
15003;DHT22;7597;53.590;10.020;2022-12-16T02:53:12;-2.30;1.00
15003;DHT22;7597;53.590;10.020;2022-12-16T02:56:02;-2.40;1.00
15003;DHT22;7597;53.590;10.020;2022-12-16T02:58:31;-2.40;1.00
15003;DHT22;7597;53.590;10.020;2022-12-16T03:01:08;-2.30;1.00
15003;DHT22;7597;53.590;10.020;2022-12-16T03:03:36;-2.30;1.00
15003;DHT22;7597;53.590;10.020;2022-12-16T03:06:01;-2.30;1.00
15003;DHT22;7597;53.590;10.020;2022-12-16T03:08:30;-2.30;1.00
15003;DHT22;7597;53.590;10.020;2022-12-16T03:10:56;-2.40;1.00
15003;DHT22;7597;53.590;10.020;2022-12-16T03:13:22;-2.40;1.00
15003;DHT22;7597;53.590;10.020;2022-12-16T03:15:50;-2.40;1.00
15003;DHT22;7597;53.590;10.020;2022-12-16T03:18:17;-2.50;1.00
15003;DHT22;7597;53.590;10.020;2022-12-16T03:20:51;-2.60;1.00
15003;DHT22;7597;53.590;10.020;2022-12-16T03:23:17;-2.60;1.00
15003;DHT22;7597;53.590;10.020;2022-12-16T03:25:43;-2.70;1.00
15003;DHT22;7597;53.590;10.020;2022-12-16T03:28:18;-2.70;1.00
15003;DHT22;7597;53.590;10.020;2022-12-16T03:30:42;-2.70;1.00
15003;DHT22;7597;53.590;10.020;2022-12-16T03:33:09;-2.60;1.00
15003;DHT22;7597;53.590;10.020;2022-12-16T03:35:36;-2.70;1.00
15003;DHT22;7597;53.590;10.020;2022-12-16T03:38:02;-2.70;1.00
15003;DHT22;7597;53.590;10.020;2022-12-16T03:40:28;-2.60;1.00
15003;DHT22;7597;53.590;10.020;2022-12-16T03:42:55;-2.60;1.00
15003;DHT22;7597;53.590;10.020;2022-12-16T03:45:24;-2.60;1.00
15003;DHT22;7597;53.590;10.020;2022-12-16T03:47:49;-2.60;1.00
15003;DHT22;7597;53.590;10.020;2022-12-16T03:50:16;-2.60;1.00
15003;DHT22;7597;53.590;10.020;2022-12-16T03:52:42;-2.70;1.00
15003;DHT22;7597;53.590;10.020;2022-12-16T03:55:09;-2.60;1.00
15003;DHT22;7597;53.590;10.020;2022-12-16T03:57:36;-2.70;1.00
15003;DHT22;7597;53.590;10.020;2022-12-16T04:00:03;-2.70;1.00
15003;DHT22;7597;53.590;10.020;2022-12-16T04:02:29;-2.80;1.00
15003;DHT22;7597;53.590;10.020;2022-12-16T04:04:56;-2.80;1.00
15003;DHT22;7597;53.590;10.020;2022-12-16T04:07:23;-2.80;1.00
15003;DHT22;7597;53.590;10.020;2022-12-16T04:09:50;-2.80;1.00
15003;DHT22;7597;53.590;10.020;2022-12-16T04:12:16;-2.80;1.00
15003;DHT22;7597;53.590;10.020;2022-12-16T04:14:48;-2.90;1.00
15003;DHT22;7597;53.590;10.020;2022-12-16T04:17:20;-2.90;1.00
15003;DHT22;7597;53.590;10.020;2022-12-16T04:19:53;-3.10;1.00
15003;DHT22;7597;53.590;10.020;2022-12-16T04:22:32;-3.10;1.00
15003;DHT22;7597;53.590;10.020;2022-12-16T04:25:08;-3.10;1.00
15003;DHT22;7597;53.590;10.020;2022-12-16T04:27:33;-3.10;1.00
15003;DHT22;7597;53.590;10.020;2022-12-16T04:30:00;-3.10;1.00
15003;DHT22;7597;53.590;10.020;2022-12-16T04:32:32;-3.10;1.00
15003;DHT22;7597;53.590;10.020;2022-12-16T04:35:05;-3.10;1.00
15003;DHT22;7597;53.590;10.020;2022-12-16T04:37:37;-3.10;1.00
15003;DHT22;7597;53.590;10.020;2022-12-16T04:40:24;-3.20;1.00
15003;DHT22;7597;53.590;10.020;2022-12-16T04:42:56;-3.40;1.00
15003;DHT22;7597;53.590;10.020;2022-12-16T04:45:28;-3.50;1.00
15003;DHT22;7597;53.590;10.020;2022-12-16T04:48:01;-3.70;1.00
15003;DHT22;7597;53.590;10.020;2022-12-16T04:50:33;-3.90;1.00
15003;DHT22;7597;53.590;10.020;2022-12-16T04:53:05;-4.10;1.00
15003;DHT22;7597;53.590;10.020;2022-12-16T04:55:39;-4.40;1.00
15003;DHT22;7597;53.590;10.020;2022-12-16T04:58:11;-4.40;1.00
15003;DHT22;7597;53.590;10.020;2022-12-16T05:00:44;-4.50;1.00
15003;DHT22;7597;53.590;10.020;2022-12-16T05:03:17;-4.40;1.00
15003;DHT22;7597;53.590;10.020;2022-12-16T05:05:49;-4.40;1.00
15003;DHT22;7597;53.590;10.020;2022-12-16T05:08:22;-4.50;1.00
15003;DHT22;7597;53.590;10.020;2022-12-16T05:10:54;-4.40;1.00
15003;DHT22;7597;53.590;10.020;2022-12-16T05:13:26;-4.40;1.00
15003;DHT22;7597;53.590;10.020;2022-12-16T05:15:59;-4.30;24.70
15003;DHT22;7597;53.590;10.020;2022-12-16T05:18:31;-4.20;47.90
15003;DHT22;7597;53.590;10.020;2022-12-16T05:21:04;-4.20;50.90
15003;DHT22;7597;53.590;10.020;2022-12-16T05:23:36;-4.20;48.40
15003;DHT22;7597;53.590;10.020;2022-12-16T05:26:08;-4.30;43.80
15003;DHT22;7597;53.590;10.020;2022-12-16T05:28:41;-4.50;36.70
15003;DHT22;7597;53.590;10.020;2022-12-16T05:31:13;-4.60;35.00
15003;DHT22;7597;53.590;10.020;2022-12-16T05:33:45;-4.60;35.00
15003;DHT22;7597;53.590;10.020;2022-12-16T05:36:28;-4.70;35.10
15003;DHT22;7597;53.590;10.020;2022-12-16T05:39:00;-4.70;40.40
15003;DHT22;7597;53.590;10.020;2022-12-16T05:41:33;-4.70;58.50
15003;DHT22;7597;53.590;10.020;2022-12-16T05:44:19;-4.70;59.00
15003;DHT22;7597;53.590;10.020;2022-12-16T05:46:51;-4.70;69.90
15003;DHT22;7597;53.590;10.020;2022-12-16T05:49:23;-4.70;73.50
15003;DHT22;7597;53.590;10.020;2022-12-16T05:51:56;-4.70;78.40
15003;DHT22;7597;53.590;10.020;2022-12-16T05:54:28;-4.70;92.00
15003;DHT22;7597;53.590;10.020;2022-12-16T05:57:00;-4.50;95.50
15003;DHT22;7597;53.590;10.020;2022-12-16T05:59:33;-4.50;97.10
15003;DHT22;7597;53.590;10.020;2022-12-16T06:02:05;-4.60;96.80
15003;DHT22;7597;53.590;10.020;2022-12-16T06:04:37;-4.10;97.30
15003;DHT22;7597;53.590;10.020;2022-12-16T06:07:10;-4.70;97.40
15003;DHT22;7597;53.590;10.020;2022-12-16T06:09:43;-4.70;99.90
15003;DHT22;7597;53.590;10.020;2022-12-16T06:12:15;-4.70;99.90
15003;DHT22;7597;53.590;10.020;2022-12-16T06:14:48;-4.70;99.90
15003;DHT22;7597;53.590;10.020;2022-12-16T06:17:20;-4.80;99.90
15003;DHT22;7597;53.590;10.020;2022-12-16T06:19:52;-4.90;99.70
15003;DHT22;7597;53.590;10.020;2022-12-16T06:22:25;-5.00;99.90
15003;DHT22;7597;53.590;10.020;2022-12-16T06:24:57;-4.90;99.90
15003;DHT22;7597;53.590;10.020;2022-12-16T06:27:29;-5.00;99.90
15003;DHT22;7597;53.590;10.020;2022-12-16T06:30:02;-5.00;99.90
15003;DHT22;7597;53.590;10.020;2022-12-16T06:32:34;-4.60;99.90
15003;DHT22;7597;53.590;10.020;2022-12-16T06:35:07;-5.10;99.90
15003;DHT22;7597;53.590;10.020;2022-12-16T06:37:39;-5.10;99.90
15003;DHT22;7597;53.590;10.020;2022-12-16T06:40:12;-5.10;99.90
15003;DHT22;7597;53.590;10.020;2022-12-16T06:42:44;-5.00;99.90
15003;DHT22;7597;53.590;10.020;2022-12-16T06:45:16;-4.90;99.90
15003;DHT22;7597;53.590;10.020;2022-12-16T06:47:49;-4.80;99.90
15003;DHT22;7597;53.590;10.020;2022-12-16T06:50:21;-4.70;99.90
15003;DHT22;7597;53.590;10.020;2022-12-16T06:53:00;-4.60;99.90
15003;DHT22;7597;53.590;10.020;2022-12-16T06:55:32;-4.60;99.90
15003;DHT22;7597;53.590;10.020;2022-12-16T06:58:04;-4.40;99.90
15003;DHT22;7597;53.590;10.020;2022-12-16T07:00:37;-4.40;99.90
15003;DHT22;7597;53.590;10.020;2022-12-16T07:03:09;-4.20;99.90
15003;DHT22;7597;53.590;10.020;2022-12-16T07:05:41;-4.30;99.90
15003;DHT22;7597;53.590;10.020;2022-12-16T07:08:15;-4.30;99.90
15003;DHT22;7597;53.590;10.020;2022-12-16T07:10:47;-4.30;99.90
15003;DHT22;7597;53.590;10.020;2022-12-16T07:13:19;-4.20;99.90
15003;DHT22;7597;53.590;10.020;2022-12-16T07:15:52;-4.30;99.90
15003;DHT22;7597;53.590;10.020;2022-12-16T07:18:24;-4.30;99.90
15003;DHT22;7597;53.590;10.020;2022-12-16T07:20:57;-4.10;99.90
15003;DHT22;7597;53.590;10.020;2022-12-16T07:23:29;-4.20;99.90
15003;DHT22;7597;53.590;10.020;2022-12-16T07:28:49;-4.10;99.90
15003;DHT22;7597;53.590;10.020;2022-12-16T07:31:21;-4.10;99.90
15003;DHT22;7597;53.590;10.020;2022-12-16T07:33:53;-4.10;99.90
15003;DHT22;7597;53.590;10.020;2022-12-16T07:36:25;-4.00;99.90
15003;DHT22;7597;53.590;10.020;2022-12-16T07:38:58;-4.00;99.90
15003;DHT22;7597;53.590;10.020;2022-12-16T07:41:30;-4.00;99.90
15003;DHT22;7597;53.590;10.020;2022-12-16T07:44:03;-3.90;99.90
15003;DHT22;7597;53.590;10.020;2022-12-16T07:46:35;-3.90;99.90
15003;DHT22;7597;53.590;10.020;2022-12-16T07:49:07;-3.80;99.90
15003;DHT22;7597;53.590;10.020;2022-12-16T07:51:40;-3.70;99.90
15003;DHT22;7597;53.590;10.020;2022-12-16T07:54:12;-3.70;99.90
15003;DHT22;7597;53.590;10.020;2022-12-16T07:56:44;-3.60;99.90
15003;DHT22;7597;53.590;10.020;2022-12-16T07:59:17;-3.60;99.90
15003;DHT22;7597;53.590;10.020;2022-12-16T08:01:49;-3.50;99.90
15003;DHT22;7597;53.590;10.020;2022-12-16T08:04:21;-3.30;99.90
15003;DHT22;7597;53.590;10.020;2022-12-16T08:06:54;-3.30;99.90
15003;DHT22;7597;53.590;10.020;2022-12-16T08:09:26;-3.20;99.90
15003;DHT22;7597;53.590;10.020;2022-12-16T08:11:59;-3.20;99.90
15003;DHT22;7597;53.590;10.020;2022-12-16T08:14:31;-3.10;99.90
15003;DHT22;7597;53.590;10.020;2022-12-16T08:17:04;-3.10;99.90
15003;DHT22;7597;53.590;10.020;2022-12-16T08:19:36;-3.10;99.90
15003;DHT22;7597;53.590;10.020;2022-12-16T08:22:08;-3.10;99.90
15003;DHT22;7597;53.590;10.020;2022-12-16T08:24:42;-3.00;99.90
15003;DHT22;7597;53.590;10.020;2022-12-16T08:27:14;-3.00;99.90
15003;DHT22;7597;53.590;10.020;2022-12-16T08:29:46;-2.90;99.90
15003;DHT22;7597;53.590;10.020;2022-12-16T08:32:18;-2.80;99.90
15003;DHT22;7597;53.590;10.020;2022-12-16T08:34:51;-2.70;99.90
15003;DHT22;7597;53.590;10.020;2022-12-16T08:37:23;-2.60;99.90
15003;DHT22;7597;53.590;10.020;2022-12-16T08:39:55;-2.50;99.90
15003;DHT22;7597;53.590;10.020;2022-12-16T08:42:29;-2.50;99.90
15003;DHT22;7597;53.590;10.020;2022-12-16T08:45:01;-2.30;99.90
15003;DHT22;7597;53.590;10.020;2022-12-16T08:47:34;-2.40;99.90
15003;DHT22;7597;53.590;10.020;2022-12-16T08:50:07;-2.20;99.90
15003;DHT22;7597;53.590;10.020;2022-12-16T08:52:39;-2.20;99.90
15003;DHT22;7597;53.590;10.020;2022-12-16T08:55:11;-2.10;99.90
15003;DHT22;7597;53.590;10.020;2022-12-16T08:57:51;-1.90;99.90
15003;DHT22;7597;53.590;10.020;2022-12-16T09:00:16;-2.00;99.90
15003;DHT22;7597;53.590;10.020;2022-12-16T09:02:53;-2.00;99.90
15003;DHT22;7597;53.590;10.020;2022-12-16T09:05:23;-1.90;99.90
15003;DHT22;7597;53.590;10.020;2022-12-16T09:08:10;-1.90;99.90
15003;DHT22;7597;53.590;10.020;2022-12-16T09:10:42;-1.90;99.90
15003;DHT22;7597;53.590;10.020;2022-12-16T09:13:15;-1.90;99.90
15003;DHT22;7597;53.590;10.020;2022-12-16T09:15:47;-1.80;99.90
15003;DHT22;7597;53.590;10.020;2022-12-16T09:18:19;-1.80;99.90
15003;DHT22;7597;53.590;10.020;2022-12-16T09:20:51;-1.70;99.90
15003;DHT22;7597;53.590;10.020;2022-12-16T09:23:24;-1.70;99.90
15003;DHT22;7597;53.590;10.020;2022-12-16T09:25:56;-1.70;99.90
15003;DHT22;7597;53.590;10.020;2022-12-16T09:28:31;-1.70;99.90
15003;DHT22;7597;53.590;10.020;2022-12-16T09:31:04;-1.60;99.90
15003;DHT22;7597;53.590;10.020;2022-12-16T09:33:36;-1.60;99.90
15003;DHT22;7597;53.590;10.020;2022-12-16T09:36:08;-1.60;99.90
15003;DHT22;7597;53.590;10.020;2022-12-16T09:38:41;-1.50;99.90
15003;DHT22;7597;53.590;10.020;2022-12-16T09:41:25;-1.40;99.90
15003;DHT22;7597;53.590;10.020;2022-12-16T09:44:27;-1.40;98.00
15003;DHT22;7597;53.590;10.020;2022-12-16T09:47:01;-1.40;95.40
15003;DHT22;7597;53.590;10.020;2022-12-16T09:49:46;-1.40;93.90
15003;DHT22;7597;53.590;10.020;2022-12-16T09:52:19;-1.30;92.50
15003;DHT22;7597;53.590;10.020;2022-12-16T09:54:51;-1.30;90.50
15003;DHT22;7597;53.590;10.020;2022-12-16T09:57:23;-1.30;86.90
15003;DHT22;7597;53.590;10.020;2022-12-16T09:59:59;-1.30;81.10
15003;DHT22;7597;53.590;10.020;2022-12-16T10:02:30;-1.30;71.50
15003;DHT22;7597;53.590;10.020;2022-12-16T10:05:02;-1.30;51.40
15003;DHT22;7597;53.590;10.020;2022-12-16T10:07:35;-1.30;28.50
15003;DHT22;7597;53.590;10.020;2022-12-16T10:10:15;-1.30;15.80
15003;DHT22;7597;53.590;10.020;2022-12-16T10:12:51;-1.30;2.60
15003;DHT22;7597;53.590;10.020;2022-12-16T10:15:30;-1.30;1.00
15003;DHT22;7597;53.590;10.020;2022-12-16T10:18:01;-1.30;1.00
15003;DHT22;7597;53.590;10.020;2022-12-16T10:20:39;-1.20;1.00
15003;DHT22;7597;53.590;10.020;2022-12-16T10:23:32;-1.20;1.00
15003;DHT22;7597;53.590;10.020;2022-12-16T10:26:25;-1.20;1.00
15003;DHT22;7597;53.590;10.020;2022-12-16T10:29:09;-1.20;1.00
15003;DHT22;7597;53.590;10.020;2022-12-16T10:31:37;-1.20;1.00
15003;DHT22;7597;53.590;10.020;2022-12-16T10:34:12;-1.20;1.00
15003;DHT22;7597;53.590;10.020;2022-12-16T10:36:43;-1.20;1.00
15003;DHT22;7597;53.590;10.020;2022-12-16T10:39:30;-1.00;1.00
15003;DHT22;7597;53.590;10.020;2022-12-16T10:42:00;-1.20;1.00
15003;DHT22;7597;53.590;10.020;2022-12-16T10:44:35;-1.10;1.00
15003;DHT22;7597;53.590;10.020;2022-12-16T10:47:05;-1.10;1.00
15003;DHT22;7597;53.590;10.020;2022-12-16T10:49:38;-1.10;1.00
15003;DHT22;7597;53.590;10.020;2022-12-16T10:52:11;-1.10;1.00
15003;DHT22;7597;53.590;10.020;2022-12-16T10:58:46;-1.00;1.00
15003;DHT22;7597;53.590;10.020;2022-12-16T11:00:45;-1.00;1.00
15003;DHT22;7597;53.590;10.020;2022-12-16T11:03:17;-1.00;1.00
15003;DHT22;7597;53.590;10.020;2022-12-16T11:05:48;-1.00;1.00
15003;DHT22;7597;53.590;10.020;2022-12-16T11:08:25;-1.00;1.00
15003;DHT22;7597;53.590;10.020;2022-12-16T11:10:56;-1.00;1.00
15003;DHT22;7597;53.590;10.020;2022-12-16T11:13:30;-1.00;1.00
15003;DHT22;7597;53.590;10.020;2022-12-16T11:19:02;-0.60;1.00
15003;DHT22;7597;53.590;10.020;2022-12-16T11:21:34;-1.10;1.00
15003;DHT22;7597;53.590;10.020;2022-12-16T11:24:13;-1.10;1.00
15003;DHT22;7597;53.590;10.020;2022-12-16T11:26:51;-1.10;1.00
15003;DHT22;7597;53.590;10.020;2022-12-16T11:29:25;-1.10;1.00
15003;DHT22;7597;53.590;10.020;2022-12-16T11:32:20;-1.10;1.00
15003;DHT22;7597;53.590;10.020;2022-12-16T11:34:52;-1.00;1.00
15003;DHT22;7597;53.590;10.020;2022-12-16T11:37:23;-1.00;1.00
15003;DHT22;7597;53.590;10.020;2022-12-16T11:39:55;-1.00;1.00
15003;DHT22;7597;53.590;10.020;2022-12-16T11:42:28;-1.00;1.00
15003;DHT22;7597;53.590;10.020;2022-12-16T11:45:00;-1.00;1.00
15003;DHT22;7597;53.590;10.020;2022-12-16T11:47:45;-1.00;1.00
15003;DHT22;7597;53.590;10.020;2022-12-16T11:50:17;-0.90;1.00
15003;DHT22;7597;53.590;10.020;2022-12-16T11:52:50;-0.90;1.00
15003;DHT22;7597;53.590;10.020;2022-12-16T11:55:24;-0.90;1.00
15003;DHT22;7597;53.590;10.020;2022-12-16T11:58:05;-0.90;1.00
15003;DHT22;7597;53.590;10.020;2022-12-16T12:00:29;-0.90;1.00
15003;DHT22;7597;53.590;10.020;2022-12-16T12:03:11;-0.70;1.00
15003;DHT22;7597;53.590;10.020;2022-12-16T12:08:42;-0.80;1.00
15003;DHT22;7597;53.590;10.020;2022-12-16T12:11:18;-0.80;1.00
15003;DHT22;7597;53.590;10.020;2022-12-16T12:13:52;-0.30;1.00
15003;DHT22;7597;53.590;10.020;2022-12-16T12:16:35;-0.70;1.00
15003;DHT22;7597;53.590;10.020;2022-12-16T12:19:05;-0.70;1.00
15003;DHT22;7597;53.590;10.020;2022-12-16T12:21:43;-0.60;1.00
15003;DHT22;7597;53.590;10.020;2022-12-16T12:24:34;-0.70;1.00
15003;DHT22;7597;53.590;10.020;2022-12-16T12:27:22;-0.60;1.00
15003;DHT22;7597;53.590;10.020;2022-12-16T12:30:09;-0.50;1.00
15003;DHT22;7597;53.590;10.020;2022-12-16T12:32:44;-0.40;1.00
15003;DHT22;7597;53.590;10.020;2022-12-16T12:35:27;-0.40;1.00
15003;DHT22;7597;53.590;10.020;2022-12-16T12:38:01;-0.30;1.00
15003;DHT22;7597;53.590;10.020;2022-12-16T12:41:22;-0.20;1.00
15003;DHT22;7597;53.590;10.020;2022-12-16T12:43:51;-0.30;1.00
15003;DHT22;7597;53.590;10.020;2022-12-16T12:46:24;-0.30;1.00
15003;DHT22;7597;53.590;10.020;2022-12-16T12:49:00;-0.30;1.00
15003;DHT22;7597;53.590;10.020;2022-12-16T12:51:36;-0.30;1.00
15003;DHT22;7597;53.590;10.020;2022-12-16T12:54:14;0.20;1.00
15003;DHT22;7597;53.590;10.020;2022-12-16T12:56:46;-0.30;1.00
15003;DHT22;7597;53.590;10.020;2022-12-16T12:59:24;-0.30;1.00
15003;DHT22;7597;53.590;10.020;2022-12-16T13:01:55;-0.20;1.00
15003;DHT22;7597;53.590;10.020;2022-12-16T13:04:27;-0.20;1.00
15003;DHT22;7597;53.590;10.020;2022-12-16T13:07:10;-0.20;1.00
15003;DHT22;7597;53.590;10.020;2022-12-16T13:09:42;-0.10;1.00
15003;DHT22;7597;53.590;10.020;2022-12-16T13:12:19;-0.10;1.00
15003;DHT22;7597;53.590;10.020;2022-12-16T13:14:55;0.00;1.00
15003;DHT22;7597;53.590;10.020;2022-12-16T13:17:26;0.00;1.00
15003;DHT22;7597;53.590;10.020;2022-12-16T13:19:58;0.00;1.00
15003;DHT22;7597;53.590;10.020;2022-12-16T13:22:32;0.00;1.00
15003;DHT22;7597;53.590;10.020;2022-12-16T13:25:07;0.00;1.00
15003;DHT22;7597;53.590;10.020;2022-12-16T13:27:44;0.00;1.00
15003;DHT22;7597;53.590;10.020;2022-12-16T13:30:17;-0.10;1.00
15003;DHT22;7597;53.590;10.020;2022-12-16T13:32:53;-0.10;1.00
15003;DHT22;7597;53.590;10.020;2022-12-16T13:35:25;-0.20;1.00
15003;DHT22;7597;53.590;10.020;2022-12-16T13:37:59;-0.20;1.00
15003;DHT22;7597;53.590;10.020;2022-12-16T13:40:36;-0.30;1.00
15003;DHT22;7597;53.590;10.020;2022-12-16T13:46:13;-0.50;1.00
15003;DHT22;7597;53.590;10.020;2022-12-16T13:48:45;-0.60;1.00
15003;DHT22;7597;53.590;10.020;2022-12-16T13:54:01;-0.80;1.00
15003;DHT22;7597;53.590;10.020;2022-12-16T13:56:40;-0.70;1.00
15003;DHT22;7597;53.590;10.020;2022-12-16T13:59:15;-1.40;1.00
15003;DHT22;7597;53.590;10.020;2022-12-16T14:01:52;-1.10;1.00
15003;DHT22;7597;53.590;10.020;2022-12-16T14:04:26;-1.00;1.00
15003;DHT22;7597;53.590;10.020;2022-12-16T14:06:58;-1.20;1.00
15003;DHT22;7597;53.590;10.020;2022-12-16T14:09:35;-1.20;1.00
15003;DHT22;7597;53.590;10.020;2022-12-16T14:12:39;-1.20;1.00
15003;DHT22;7597;53.590;10.020;2022-12-16T14:15:25;-1.10;1.00
15003;DHT22;7597;53.590;10.020;2022-12-16T14:17:59;-1.10;1.00
15003;DHT22;7597;53.590;10.020;2022-12-16T14:20:36;-1.00;1.00
15003;DHT22;7597;53.590;10.020;2022-12-16T14:26:00;-1.00;1.00
15003;DHT22;7597;53.590;10.020;2022-12-16T14:28:36;-1.00;1.00
15003;DHT22;7597;53.590;10.020;2022-12-16T14:31:15;-1.00;1.00
15003;DHT22;7597;53.590;10.020;2022-12-16T14:33:50;-1.00;1.00
15003;DHT22;7597;53.590;10.020;2022-12-16T14:36:24;-1.20;1.00
15003;DHT22;7597;53.590;10.020;2022-12-16T14:38:56;-1.30;1.00
15003;DHT22;7597;53.590;10.020;2022-12-16T14:41:29;-1.30;1.00
15003;DHT22;7597;53.590;10.020;2022-12-16T14:44:02;-1.30;1.00
15003;DHT22;7597;53.590;10.020;2022-12-16T14:46:34;-1.40;1.00
15003;DHT22;7597;53.590;10.020;2022-12-16T14:49:13;-1.50;1.00
15003;DHT22;7597;53.590;10.020;2022-12-16T14:51:45;-1.60;1.00
15003;DHT22;7597;53.590;10.020;2022-12-16T14:54:25;-1.80;1.00
15003;DHT22;7597;53.590;10.020;2022-12-16T14:56:57;-1.90;1.00
15003;DHT22;7597;53.590;10.020;2022-12-16T14:59:29;-2.10;1.00
15003;DHT22;7597;53.590;10.020;2022-12-16T15:02:13;-2.20;1.00
15003;DHT22;7597;53.590;10.020;2022-12-16T15:04:42;-2.30;1.00
15003;DHT22;7597;53.590;10.020;2022-12-16T15:07:15;-2.40;1.00
15003;DHT22;7597;53.590;10.020;2022-12-16T15:09:47;-2.50;1.00
15003;DHT22;7597;53.590;10.020;2022-12-16T15:12:21;-2.70;1.00
15003;DHT22;7597;53.590;10.020;2022-12-16T15:14:52;-2.50;1.00
15003;DHT22;7597;53.590;10.020;2022-12-16T15:17:40;-2.80;1.00
15003;DHT22;7597;53.590;10.020;2022-12-16T15:20:18;-2.90;1.00
15003;DHT22;7597;53.590;10.020;2022-12-16T15:22:50;-2.90;1.00
15003;DHT22;7597;53.590;10.020;2022-12-16T15:25:23;-2.90;1.00
15003;DHT22;7597;53.590;10.020;2022-12-16T15:27:55;-3.10;1.00
15003;DHT22;7597;53.590;10.020;2022-12-16T15:30:35;-3.10;1.00
15003;DHT22;7597;53.590;10.020;2022-12-16T15:33:09;-3.10;1.00
15003;DHT22;7597;53.590;10.020;2022-12-16T15:35:39;-3.10;1.00
15003;DHT22;7597;53.590;10.020;2022-12-16T15:38:27;-3.10;1.00
15003;DHT22;7597;53.590;10.020;2022-12-16T15:41:00;-3.10;1.00
15003;DHT22;7597;53.590;10.020;2022-12-16T15:43:32;-3.10;1.00
15003;DHT22;7597;53.590;10.020;2022-12-16T15:46:04;-2.80;1.00
15003;DHT22;7597;53.590;10.020;2022-12-16T15:48:36;-3.00;1.00
15003;DHT22;7597;53.590;10.020;2022-12-16T15:51:19;-2.90;1.00
15003;DHT22;7597;53.590;10.020;2022-12-16T15:54:01;-2.90;1.00
15003;DHT22;7597;53.590;10.020;2022-12-16T15:56:39;-2.80;1.00
15003;DHT22;7597;53.590;10.020;2022-12-16T15:59:13;-2.70;1.00
15003;DHT22;7597;53.590;10.020;2022-12-16T16:01:45;-2.70;1.00
15003;DHT22;7597;53.590;10.020;2022-12-16T16:06:55;-2.70;1.00
15003;DHT22;7597;53.590;10.020;2022-12-16T16:09:28;-2.70;1.00
15003;DHT22;7597;53.590;10.020;2022-12-16T16:12:00;-2.70;3.20
15003;DHT22;7597;53.590;10.020;2022-12-16T16:14:32;-2.60;11.20
15003;DHT22;7597;53.590;10.020;2022-12-16T16:17:10;-2.60;23.70
15003;DHT22;7597;53.590;10.020;2022-12-16T16:19:38;-2.50;35.90
15003;DHT22;7597;53.590;10.020;2022-12-16T16:22:11;-2.50;46.80
15003;DHT22;7597;53.590;10.020;2022-12-16T16:24:42;-2.50;57.20
15003;DHT22;7597;53.590;10.020;2022-12-16T16:27:14;-2.50;57.80
15003;DHT22;7597;53.590;10.020;2022-12-16T16:29:47;-2.60;61.10
15003;DHT22;7597;53.590;10.020;2022-12-16T16:32:19;-2.50;66.10
15003;DHT22;7597;53.590;10.020;2022-12-16T16:34:51;-2.50;74.50
15003;DHT22;7597;53.590;10.020;2022-12-16T16:37:24;-2.40;88.70
15003;DHT22;7597;53.590;10.020;2022-12-16T16:39:56;-2.00;92.60
15003;DHT22;7597;53.590;10.020;2022-12-16T16:42:30;-2.30;93.40
15003;DHT22;7597;53.590;10.020;2022-12-16T16:45:01;-2.30;91.80
15003;DHT22;7597;53.590;10.020;2022-12-16T16:47:33;-2.40;90.40
15003;DHT22;7597;53.590;10.020;2022-12-16T16:50:05;-2.50;90.10
15003;DHT22;7597;53.590;10.020;2022-12-16T16:52:37;-2.60;90.20
15003;DHT22;7597;53.590;10.020;2022-12-16T16:55:14;-2.50;91.70
15003;DHT22;7597;53.590;10.020;2022-12-16T16:57:45;-2.50;93.60
15003;DHT22;7597;53.590;10.020;2022-12-16T17:00:17;-2.60;93.30